Haines, AK

3:25 PM AKDT on October 22, 2014 (GMT -0800)
Haines | Change Station
CLOSE
Current Station
Airport
Location: Haines,
Elevation: 16 ft
Nearby Weather Stations

Elev 16 ft 59.24 °N, 135.51 °W | Updated 31 minutes ago

Light Rain
Light Rain
45 °F
Feels Like 40 °F
N
10
Wind Variable Wind from East

Today
High -- | Low -- °F
--% Chance of Precip.
Yesterday
High -- | Low -- °F
Precip. -- in
7:56 AM 5:34 PM
Waning Crescent, 1% visible
Pressure 29.43 in
Visibility 10.0 miles
Clouds Mostly Cloudy 1800 ft
Overcast 3200 ft
Windchill 40 °F
Dew Point 41 °F
Humidity 86%
Rainfall 0.17 in
Snow Depth Not available.
UV 0 out of 12
Pollen Not available.
Air Quality Not available.
Flu Activity Sporadic
METAR PAHN 222254Z AUTO 09009KT 10SM -RA BKN018 OVC032 07/05 A2942 RMK AO2 SLP966 P0000 T00720050 TSNO

More Conditions Fewer Conditions

Pressure 29.43 in
Visibility 10.0 miles
Clouds Mostly Cloudy 1800 ft
Overcast 3200 ft
Windchill 40 °F
Dew Point 41 °F
Humidity 86%
Rainfall 0.17 in
Snow Depth Not available.
UV 0 out of 12
Pollen Not available.
Air Quality Not available.
Flu Activity Sporadic
METAR PAHN 222254Z AUTO 09009KT 10SM -RA BKN018 OVC032 07/05 A2942 RMK AO2 SLP966 P0000 T00720050 TSNO

More Conditions Fewer Conditions

10-Day Weather Forecast

Almanac

Astronomy

Oct. 22, 2014 Rise Set
Actual Time 7:56 AM AKDT 5:34 PM AKDT
Civil Twilight 7:14 AM AKDT 6:16 PM AKDT
Nautical Twilight 6:27 AM AKDT 7:04 PM AKDT
Astronomical Twilight 5:40 AM AKDT 7:51 PM AKDT
Moon 6:30 AM AKDT 5:15 PM AKDT
Length of Visible Light 11h 02m
Length of Day
9h 37m
Tomorrow will be 5m 8s shorter.
Waning Crescent, 1% of the Moon is Illuminated
Today
Waning Crescent
Oct 23
New
Oct 30
First Quarter
Nov 6
Full
Nov 14
Last Quarter

Today's Extremes

State Highs State Lows

Community

WunderPhotos

Upload Photos

1,764,078 photos uploaded!

WunderBlogs® & News

Nearby

Snow Depth

Station Depth Elevation
Long Lake 0 in 820 ft
Upper Tsaina River 9 in 1750 ft
Moraine 38 in 2100 ft
Granite Creek 6 in 1240 ft
Grandview 4 in 1100 ft

Earthquake Activity

City Distance Mag. Time & Date
No recent earthquake activity has been reported nearby.
Minimum magnitude displayed is 2.5.

Coastal Water Temperatures

Place Temperature
No Stations Reporting

Nearby Weather Stations